createdAt,value
2022-07-26T00:00:42.528Z,27.18
2022-07-26T00:03:15.514Z,27.15
2022-07-26T00:05:47.801Z,27.10
2022-07-26T00:08:19.852Z,27.07
2022-07-26T00:10:53.269Z,27.03
2022-07-26T00:13:25.437Z,27.00
2022-07-26T00:16:03.019Z,26.95
2022-07-26T00:18:35.680Z,26.93
2022-07-26T00:21:08.195Z,26.81
2022-07-26T00:23:40.799Z,26.83
2022-07-26T00:26:12.949Z,26.69
2022-07-26T00:28:47.255Z,26.75
2022-07-26T00:31:19.354Z,26.73
2022-07-26T00:33:51.547Z,26.70
2022-07-26T00:36:23.954Z,26.68
2022-07-26T00:38:56.032Z,26.67
2022-07-26T00:41:27.975Z,26.68
2022-07-26T00:44:01.745Z,26.68
2022-07-26T00:46:33.924Z,26.66
2022-07-26T00:49:06.773Z,26.62
2022-07-26T00:51:39.361Z,26.56
2022-07-26T00:54:11.813Z,26.50
2022-07-26T00:56:44.343Z,26.47
2022-07-26T00:59:17.421Z,26.43
2022-07-26T01:01:49.697Z,26.40
2022-07-26T01:04:22.004Z,26.28
2022-07-26T01:06:54.431Z,26.34
2022-07-26T01:09:27.256Z,26.34
2022-07-26T01:12:00.261Z,26.29
2022-07-26T01:14:32.415Z,26.27
2022-07-26T01:17:04.499Z,26.24
2022-07-26T01:19:36.657Z,26.24
2022-07-26T01:22:14.161Z,25.96
2022-07-26T01:24:46.923Z,25.77
2022-07-26T01:27:19.183Z,25.77
2022-07-26T01:29:51.924Z,25.80
2022-07-26T01:32:23.965Z,25.85
2022-07-26T01:34:56.108Z,25.87
2022-07-26T01:37:28.404Z,25.86
2022-07-26T01:40:00.400Z,25.88
2022-07-26T01:42:32.491Z,25.97
2022-07-26T01:45:04.739Z,25.95
2022-07-26T01:47:37.053Z,25.93
2022-07-26T01:50:12.075Z,25.88
2022-07-26T01:52:44.869Z,25.79
2022-07-26T01:55:17.106Z,25.71
2022-07-26T01:57:49.490Z,25.66
2022-07-26T02:00:22.836Z,25.66
2022-07-26T02:02:55.199Z,25.53
2022-07-26T02:05:27.439Z,25.56
2022-07-26T02:08:00.027Z,25.50
2022-07-26T02:10:45.996Z,25.40
2022-07-26T02:13:20.016Z,25.34
2022-07-26T02:15:52.063Z,25.16
2022-07-26T02:18:24.800Z,25.15
2022-07-26T02:20:58.137Z,25.03
2022-07-26T02:23:32.533Z,24.98
2022-07-26T02:26:04.818Z,25.04
2022-07-26T02:28:36.876Z,24.93
2022-07-26T02:31:09.029Z,24.90
2022-07-26T02:33:44.819Z,24.75
2022-07-26T02:36:16.887Z,24.58
2022-07-26T02:38:48.884Z,24.52
2022-07-26T02:41:21.012Z,24.42
2022-07-26T02:43:53.346Z,24.40
2022-07-26T02:46:25.493Z,24.42
2022-07-26T02:48:57.782Z,24.44
2022-07-26T02:51:30.240Z,24.39
2022-07-26T02:54:02.318Z,24.34
2022-07-26T02:56:34.695Z,24.31
2022-07-26T02:59:07.569Z,24.20
2022-07-26T03:01:39.881Z,24.13
2022-07-26T03:04:12.083Z,24.17
2022-07-26T03:06:44.035Z,24.32
2022-07-26T03:09:17.282Z,24.39
2022-07-26T03:11:49.728Z,24.36
2022-07-26T03:14:21.941Z,24.26
2022-07-26T03:16:53.957Z,24.28
2022-07-26T03:19:25.977Z,24.20
2022-07-26T03:21:58.369Z,24.16
2022-07-26T03:24:30.450Z,24.05
2022-07-26T03:27:02.869Z,24.11
2022-07-26T03:29:35.467Z,24.09
2022-07-26T03:32:10.083Z,24.17
2022-07-26T03:34:42.713Z,24.12
2022-07-26T03:37:14.871Z,24.02
2022-07-26T03:39:47.511Z,23.82
2022-07-26T03:42:19.867Z,23.87
2022-07-26T03:44:51.944Z,23.99
2022-07-26T03:47:23.947Z,23.97
2022-07-26T03:49:56.078Z,23.94
2022-07-26T03:52:29.203Z,23.97
2022-07-26T03:55:01.536Z,23.98
2022-07-26T03:57:34.014Z,23.84
2022-07-26T04:00:09.430Z,23.88
2022-07-26T04:02:41.593Z,23.82
2022-07-26T04:05:14.085Z,23.79
2022-07-26T04:07:53.021Z,23.65
2022-07-26T04:10:26.422Z,23.51
2022-07-26T04:12:58.960Z,23.47
2022-07-26T04:15:31.029Z,23.44
2022-07-26T04:18:02.993Z,23.32
2022-07-26T04:20:35.388Z,23.28
2022-07-26T04:23:11.094Z,23.32
2022-07-26T04:25:44.849Z,23.24
2022-07-26T04:28:18.808Z,23.26
2022-07-26T04:30:54.889Z,23.23
2022-07-26T04:33:27.585Z,23.13
2022-07-26T04:35:59.670Z,23.28
2022-07-26T04:38:32.092Z,23.16
2022-07-26T04:41:04.261Z,22.99
2022-07-26T04:43:36.390Z,23.10
2022-07-26T04:46:08.639Z,23.04
2022-07-26T04:48:41.485Z,23.05
2022-07-26T04:51:13.721Z,23.10
2022-07-26T04:53:46.597Z,23.12
2022-07-26T04:56:18.773Z,23.10
2022-07-26T04:58:51.042Z,23.00
2022-07-26T05:01:23.363Z,22.93
2022-07-26T05:03:55.492Z,22.94
2022-07-26T05:06:27.585Z,23.02
2022-07-26T05:08:59.656Z,23.04
2022-07-26T05:11:32.110Z,23.06
2022-07-26T05:14:04.522Z,23.11
2022-07-26T05:16:39.273Z,23.05
2022-07-26T05:19:16.619Z,23.03
2022-07-26T05:21:48.608Z,22.96
2022-07-26T05:24:20.806Z,23.03
2022-07-26T05:26:56.840Z,22.88
2022-07-26T05:29:30.804Z,22.90
2022-07-26T05:32:03.300Z,22.88
2022-07-26T05:34:35.629Z,22.93
2022-07-26T05:37:08.163Z,22.86
2022-07-26T05:39:40.261Z,22.82
2022-07-26T05:42:12.350Z,22.84
2022-07-26T05:44:44.565Z,22.97
2022-07-26T05:47:16.744Z,22.98
2022-07-26T05:49:48.933Z,23.01
2022-07-26T05:52:20.975Z,22.86
2022-07-26T05:54:53.460Z,22.97
2022-07-26T05:57:26.079Z,23.08
2022-07-26T05:59:58.707Z,23.10
2022-07-26T06:02:30.827Z,23.11
2022-07-26T06:05:03.057Z,23.05
2022-07-26T06:07:35.198Z,23.08
2022-07-26T06:10:09.326Z,23.03
2022-07-26T06:12:41.765Z,23.09
2022-07-26T06:15:15.048Z,23.15
2022-07-26T06:17:48.042Z,23.06
2022-07-26T06:20:20.171Z,23.16
2022-07-26T06:22:53.037Z,23.10
2022-07-26T06:25:25.276Z,23.07
2022-07-26T06:27:57.429Z,23.06
2022-07-26T06:30:29.877Z,23.05
2022-07-26T06:33:02.077Z,23.17
2022-07-26T06:35:36.108Z,23.15
2022-07-26T06:38:08.504Z,23.07
2022-07-26T06:40:41.066Z,23.21
2022-07-26T06:43:13.182Z,23.29
2022-07-26T06:45:45.301Z,23.28
2022-07-26T06:48:17.407Z,23.30
2022-07-26T06:50:49.795Z,23.23
2022-07-26T06:53:22.064Z,23.28
2022-07-26T06:55:54.305Z,23.33
2022-07-26T06:58:26.450Z,23.42
2022-07-26T07:00:58.706Z,23.38
2022-07-26T07:03:30.993Z,23.40
2022-07-26T07:06:27.201Z,23.56
2022-07-26T07:08:59.730Z,23.69
2022-07-26T07:11:31.985Z,23.78
2022-07-26T07:14:04.356Z,23.88
2022-07-26T07:16:36.749Z,23.82
2022-07-26T07:19:09.464Z,23.76
2022-07-26T07:21:44.753Z,23.81
2022-07-26T07:24:17.367Z,23.82
2022-07-26T07:26:49.530Z,23.92
2022-07-26T07:29:23.228Z,23.97
2022-07-26T07:31:55.887Z,23.95
2022-07-26T07:34:28.823Z,23.98
2022-07-26T07:37:01.073Z,23.99
2022-07-26T07:39:38.508Z,23.90
2022-07-26T07:42:10.966Z,23.96
2022-07-26T07:44:43.135Z,24.06
2022-07-26T07:47:15.420Z,24.10
2022-07-26T07:49:47.625Z,24.21
2022-07-26T07:52:19.824Z,24.15
2022-07-26T07:54:52.031Z,24.07
2022-07-26T07:57:24.797Z,24.06
2022-07-26T07:59:57.853Z,24.22
2022-07-26T08:02:30.381Z,24.34
2022-07-26T08:05:14.365Z,24.36
2022-07-26T08:07:47.605Z,24.52
2022-07-26T08:10:19.824Z,24.59
2022-07-26T08:12:51.901Z,24.63
2022-07-26T08:15:24.485Z,24.56
2022-07-26T08:17:56.816Z,24.67
2022-07-26T08:20:30.730Z,24.66
2022-07-26T08:23:03.118Z,24.60
2022-07-26T08:25:35.255Z,24.68
2022-07-26T08:28:19.746Z,24.81
2022-07-26T08:31:00.192Z,24.86
2022-07-26T08:33:32.578Z,24.88
2022-07-26T08:36:04.866Z,24.91
2022-07-26T08:38:36.961Z,24.98
2022-07-26T08:41:09.409Z,25.00
2022-07-26T08:43:52.233Z,24.95
2022-07-26T08:46:27.976Z,25.01
2022-07-26T08:49:00.516Z,24.93
2022-07-26T08:51:34.204Z,25.00
2022-07-26T08:54:06.425Z,25.07
2022-07-26T08:56:42.687Z,25.00
2022-07-26T08:59:22.284Z,25.08
2022-07-26T09:01:57.554Z,25.16
2022-07-26T09:04:32.096Z,25.26
2022-07-26T09:07:07.164Z,25.37
2022-07-26T09:09:41.076Z,25.30
2022-07-26T09:12:21.113Z,25.33
2022-07-26T09:14:54.015Z,25.32
2022-07-26T09:17:38.002Z,25.37
2022-07-26T09:20:13.113Z,25.37
2022-07-26T09:26:05.033Z,25.46
2022-07-26T09:28:33.761Z,25.46
2022-07-26T09:31:05.488Z,25.62
2022-07-26T09:33:46.240Z,25.71
2022-07-26T09:36:16.483Z,25.64
2022-07-26T09:38:49.885Z,25.64
2022-07-26T09:41:20.624Z,25.61
2022-07-26T09:43:53.671Z,25.51
2022-07-26T09:46:25.467Z,25.61
2022-07-26T09:49:11.860Z,25.68
2022-07-26T09:51:43.228Z,25.69
2022-07-26T09:54:18.275Z,25.72
2022-07-26T09:56:54.306Z,25.78
2022-07-26T09:59:28.186Z,25.88
2022-07-26T10:02:01.548Z,25.90
2022-07-26T10:04:34.106Z,26.01
2022-07-26T10:07:07.359Z,26.07
2022-07-26T10:09:46.937Z,25.97
2022-07-26T10:12:20.468Z,26.12
2022-07-26T10:14:52.755Z,26.06
2022-07-26T10:17:49.515Z,26.03
2022-07-26T10:20:43.240Z,25.96
2022-07-26T10:23:37.254Z,25.82
2022-07-26T10:26:12.025Z,25.83
2022-07-26T10:28:44.356Z,25.79
2022-07-26T10:31:33.260Z,25.90
2022-07-26T10:34:05.629Z,25.96
2022-07-26T10:36:40.353Z,26.01
2022-07-26T10:39:17.743Z,26.08
2022-07-26T10:41:59.130Z,26.14
2022-07-26T10:44:32.750Z,26.14
2022-07-26T10:47:15.728Z,26.12
2022-07-26T10:49:57.524Z,26.09
2022-07-26T10:52:31.546Z,26.16
2022-07-26T10:55:13.479Z,26.12
2022-07-26T10:57:48.570Z,26.13
2022-07-26T11:00:23.173Z,26.18
2022-07-26T11:02:58.638Z,26.22
2022-07-26T11:05:35.024Z,26.25
2022-07-26T11:08:10.458Z,26.38
2022-07-26T11:10:44.262Z,26.41
2022-07-26T11:13:19.493Z,26.42
2022-07-26T11:15:59.728Z,26.56
2022-07-26T11:18:35.377Z,26.52
2022-07-26T11:21:15.392Z,26.50
2022-07-26T11:23:51.368Z,26.58
2022-07-26T11:26:24.584Z,26.64
2022-07-26T11:28:59.164Z,26.70
2022-07-26T11:31:50.981Z,26.62
2022-07-26T11:34:33.968Z,26.50
2022-07-26T11:37:07.107Z,26.49
2022-07-26T11:39:39.658Z,26.55
2022-07-26T11:42:16.270Z,26.48
2022-07-26T11:44:50.964Z,26.55
2022-07-26T11:47:24.318Z,26.58
2022-07-26T11:50:18.685Z,26.55
2022-07-26T11:52:55.860Z,26.50
2022-07-26T11:55:32.343Z,26.36
2022-07-26T11:58:08.391Z,26.25
2022-07-26T12:00:40.878Z,26.17
2022-07-26T12:03:13.460Z,26.09
2022-07-26T12:05:46.482Z,26.14
2022-07-26T12:08:18.739Z,26.21
2022-07-26T12:26:37.373Z,26.75
2022-07-26T12:29:30.048Z,26.68
2022-07-26T12:32:12.271Z,26.61
2022-07-26T12:34:56.992Z,26.52
2022-07-26T12:37:39.533Z,26.40
2022-07-26T12:40:17.241Z,26.36
2022-07-26T12:43:01.061Z,26.27
2022-07-26T12:45:36.142Z,26.27
2022-07-26T12:48:11.962Z,26.30
2022-07-26T12:50:44.205Z,26.34
2022-07-26T12:53:16.487Z,26.44
2022-07-26T12:55:49.037Z,26.47
2022-07-26T12:58:21.358Z,26.58
2022-07-26T13:00:54.853Z,26.70
2022-07-26T13:03:27.040Z,26.84
2022-07-26T13:05:59.159Z,26.92
2022-07-26T13:08:32.008Z,27.10
2022-07-26T13:11:05.136Z,27.11
2022-07-26T13:13:37.218Z,27.01
2022-07-26T13:16:12.287Z,26.92
2022-07-26T13:18:44.628Z,26.99
2022-07-26T13:21:16.887Z,27.08
2022-07-26T13:23:49.018Z,27.19
2022-07-26T13:26:21.095Z,27.20
2022-07-26T13:28:55.086Z,27.18
2022-07-26T13:31:28.967Z,27.30
2022-07-26T13:34:01.185Z,27.30
2022-07-26T13:36:34.098Z,27.26
2022-07-26T13:39:06.948Z,27.29
2022-07-26T13:41:39.664Z,27.21
2022-07-26T13:44:11.991Z,27.12
2022-07-26T13:46:47.243Z,27.29
2022-07-26T13:49:19.424Z,27.29
2022-07-26T13:52:01.293Z,27.39
2022-07-26T13:54:34.820Z,27.61
2022-07-26T13:57:08.103Z,27.67
2022-07-26T13:59:40.533Z,27.71
2022-07-26T14:02:13.104Z,27.61
2022-07-26T14:04:45.318Z,27.65
2022-07-26T14:07:17.509Z,27.68
2022-07-26T14:09:49.680Z,27.73
2022-07-26T14:12:21.815Z,27.69
2022-07-26T14:14:54.391Z,27.99
2022-07-26T14:17:26.679Z,28.27
2022-07-26T14:19:58.758Z,28.38
2022-07-26T14:22:31.164Z,28.40
2022-07-26T14:25:03.293Z,28.34
2022-07-26T14:27:35.568Z,28.25
2022-07-26T14:30:09.826Z,28.19
2022-07-26T14:32:42.608Z,28.13
2022-07-26T14:35:16.567Z,28.11
2022-07-26T14:37:48.752Z,28.02
2022-07-26T14:40:20.785Z,28.00
2022-07-26T14:42:52.949Z,28.02
2022-07-26T14:45:25.284Z,27.94
2022-07-26T14:47:57.858Z,28.02
2022-07-26T14:50:42.419Z,28.07
2022-07-26T14:53:22.690Z,28.24
2022-07-26T14:55:54.910Z,28.24
2022-07-26T14:58:27.169Z,28.36
2022-07-26T15:00:59.797Z,28.45
2022-07-26T15:03:33.608Z,28.31
2022-07-26T15:06:05.972Z,28.21
2022-07-26T15:08:38.256Z,28.22
2022-07-26T15:11:10.507Z,28.29
2022-07-26T15:13:43.480Z,28.05
2022-07-26T15:16:15.490Z,27.99
2022-07-26T15:18:47.661Z,27.89
2022-07-26T15:21:20.399Z,27.72
2022-07-26T15:23:52.588Z,27.55
2022-07-26T15:26:24.776Z,27.46
2022-07-26T15:28:56.843Z,27.40
2022-07-26T15:31:36.664Z,27.26
2022-07-26T15:34:11.628Z,27.28
2022-07-26T15:36:44.091Z,27.23
2022-07-26T15:39:17.648Z,27.21
2022-07-26T15:41:51.391Z,27.15
2022-07-26T15:44:25.656Z,27.10
2022-07-26T15:46:58.210Z,27.03
2022-07-26T15:49:31.065Z,27.02
2022-07-26T15:52:04.049Z,26.96
2022-07-26T15:54:37.077Z,26.96
2022-07-26T15:57:10.080Z,26.90
2022-07-26T15:59:42.637Z,26.80
2022-07-26T16:02:15.216Z,26.76
2022-07-26T16:04:47.686Z,26.70
2022-07-26T16:07:20.988Z,26.56
2022-07-26T16:09:53.154Z,26.59
2022-07-26T16:12:25.711Z,26.57
2022-07-26T16:14:57.988Z,26.52
2022-07-26T16:17:30.040Z,26.42
2022-07-26T16:20:02.235Z,26.34
2022-07-26T16:22:34.402Z,26.28
2022-07-26T16:25:07.589Z,26.42
2022-07-26T16:27:39.722Z,26.48
2022-07-26T16:30:14.195Z,26.52
2022-07-26T16:32:47.525Z,26.46
2022-07-26T16:35:19.771Z,26.48
2022-07-26T16:37:52.060Z,26.47
2022-07-26T16:40:24.253Z,26.46
2022-07-26T16:42:56.563Z,26.38
2022-07-26T16:45:28.973Z,26.16
2022-07-26T16:48:01.060Z,25.85
2022-07-26T16:50:33.622Z,25.67
2022-07-26T16:53:10.334Z,25.50
2022-07-26T16:55:45.420Z,25.32
2022-07-26T16:58:17.771Z,25.27
2022-07-26T17:00:50.465Z,25.07
2022-07-26T17:03:23.867Z,24.91
2022-07-26T17:05:56.344Z,24.82
2022-07-26T17:08:28.387Z,24.65
2022-07-26T17:11:00.771Z,24.63
2022-07-26T17:13:32.939Z,24.38
2022-07-26T17:16:05.589Z,24.44
2022-07-26T17:18:37.739Z,24.38
2022-07-26T17:21:09.809Z,24.44
2022-07-26T17:23:41.961Z,24.31
2022-07-26T17:26:14.449Z,24.16
2022-07-26T17:28:46.937Z,24.15
2022-07-26T17:31:19.371Z,24.03
2022-07-26T17:33:51.959Z,24.11
2022-07-26T17:36:26.788Z,24.09
2022-07-26T17:39:02.652Z,23.74
2022-07-26T17:41:35.175Z,23.80
2022-07-26T17:44:07.765Z,23.72
2022-07-26T17:46:39.880Z,23.76
2022-07-26T17:49:12.582Z,23.62
2022-07-26T17:51:46.071Z,23.69
2022-07-26T17:54:18.175Z,23.70
2022-07-26T17:56:50.305Z,23.68
2022-07-26T17:59:23.446Z,23.63
2022-07-26T18:01:55.807Z,23.64
2022-07-26T18:04:28.262Z,23.63
2022-07-26T18:07:00.861Z,23.66
2022-07-26T18:09:33.138Z,23.62
2022-07-26T18:12:06.299Z,23.56
2022-07-26T18:14:38.414Z,23.51
2022-07-26T18:17:10.516Z,23.45
2022-07-26T18:19:43.034Z,23.39
2022-07-26T18:22:15.463Z,23.43
2022-07-26T18:24:47.794Z,23.40
2022-07-26T18:27:19.860Z,23.39
2022-07-26T18:29:52.088Z,23.39
2022-07-26T18:32:24.385Z,23.33
2022-07-26T18:34:56.787Z,23.28
2022-07-26T18:37:30.156Z,23.27
2022-07-26T18:40:02.285Z,23.28
2022-07-26T18:42:36.238Z,23.24
2022-07-26T18:45:10.176Z,23.06
2022-07-26T18:47:42.591Z,23.03
2022-07-26T18:50:17.180Z,22.94
2022-07-26T18:52:48.066Z,23.06
2022-07-26T18:55:20.368Z,23.00
2022-07-26T18:57:52.551Z,22.96
2022-07-26T19:00:25.297Z,22.87
2022-07-26T19:02:57.905Z,22.86
2022-07-26T19:05:34.523Z,22.77
2022-07-26T19:08:08.193Z,22.58
2022-07-26T19:10:41.442Z,22.79
2022-07-26T19:13:14.083Z,22.73
2022-07-26T19:15:46.494Z,22.67
2022-07-26T19:18:19.334Z,22.62
2022-07-26T19:20:51.571Z,22.59
2022-07-26T19:23:23.917Z,22.57
2022-07-26T19:25:57.901Z,22.56
2022-07-26T19:28:30.322Z,22.51
2022-07-26T19:31:02.866Z,22.43
2022-07-26T19:33:34.927Z,22.43
2022-07-26T19:36:09.155Z,22.37
2022-07-26T19:38:41.495Z,22.31
2022-07-26T19:41:16.123Z,22.31
2022-07-26T19:43:49.352Z,22.32
2022-07-26T19:46:21.949Z,22.22
2022-07-26T19:48:57.466Z,22.20
2022-07-26T19:51:31.579Z,22.20
2022-07-26T19:54:03.820Z,22.21
2022-07-26T19:56:37.377Z,22.16
2022-07-26T19:59:10.079Z,22.15
2022-07-26T20:01:44.728Z,22.20
2022-07-26T20:04:17.110Z,22.13
2022-07-26T20:06:49.507Z,22.15
2022-07-26T20:09:22.201Z,22.15
2022-07-26T20:11:54.365Z,22.15
2022-07-26T20:14:26.879Z,22.11
2022-07-26T20:16:59.490Z,22.07
2022-07-26T20:19:31.919Z,22.10
2022-07-26T20:22:04.537Z,22.11
2022-07-26T20:24:38.493Z,22.07
2022-07-26T20:27:11.438Z,22.04
2022-07-26T20:29:43.529Z,22.06
2022-07-26T20:32:15.771Z,22.09
2022-07-26T20:34:48.139Z,22.05
2022-07-26T20:37:21.936Z,22.07
2022-07-26T20:39:54.488Z,22.12
2022-07-26T20:42:27.648Z,22.08
2022-07-26T20:45:01.486Z,22.05
2022-07-26T20:47:33.861Z,21.95
2022-07-26T20:50:08.046Z,22.02
2022-07-26T20:52:40.843Z,21.84
2022-07-26T20:55:14.208Z,21.88
2022-07-26T20:57:46.716Z,21.84
2022-07-26T21:00:22.601Z,21.80
2022-07-26T21:02:58.194Z,21.75
2022-07-26T21:05:36.015Z,21.70
2022-07-26T21:08:10.133Z,21.63
2022-07-26T21:10:46.210Z,21.57
2022-07-26T21:13:18.468Z,21.56
2022-07-26T21:15:53.740Z,21.59
2022-07-26T21:18:30.723Z,21.46
2022-07-26T21:21:03.603Z,21.55
2022-07-26T21:23:35.965Z,21.56
2022-07-26T21:26:09.414Z,21.41
2022-07-26T21:28:41.521Z,21.40
2022-07-26T21:31:14.358Z,21.37
2022-07-26T21:33:47.092Z,21.35
2022-07-26T21:36:19.951Z,21.33
2022-07-26T21:38:52.513Z,21.31
2022-07-26T21:41:25.737Z,21.10
2022-07-26T21:43:58.012Z,21.12
2022-07-26T21:46:30.597Z,21.13
2022-07-26T21:49:03.246Z,21.09
2022-07-26T21:51:36.592Z,21.09
2022-07-26T21:54:08.816Z,21.13
2022-07-26T21:56:40.956Z,21.07
2022-07-26T21:59:14.243Z,21.06
2022-07-26T22:01:46.818Z,21.15
2022-07-26T22:04:18.955Z,21.15
2022-07-26T22:06:51.142Z,21.17
2022-07-26T22:09:23.426Z,21.19
2022-07-26T22:15:24.571Z,21.22
2022-07-26T22:17:56.727Z,21.22
2022-07-26T22:20:33.161Z,21.22
2022-07-26T22:23:08.243Z,21.21
2022-07-26T22:25:41.423Z,21.19
2022-07-26T22:28:18.391Z,21.22
2022-07-26T22:30:51.469Z,21.18
2022-07-26T22:33:23.811Z,21.21
2022-07-26T22:35:56.423Z,21.20
2022-07-26T22:38:29.059Z,21.19
2022-07-26T22:41:01.791Z,21.13
2022-07-26T22:43:34.169Z,21.13
2022-07-26T22:46:06.756Z,21.14
2022-07-26T22:52:01.399Z,21.06
2022-07-26T22:54:33.309Z,21.04
2022-07-26T22:57:05.893Z,21.07
2022-07-26T22:59:38.146Z,21.10
2022-07-26T23:02:10.452Z,21.13
2022-07-26T23:04:42.586Z,21.09
2022-07-26T23:07:15.873Z,21.08
2022-07-26T23:09:50.445Z,21.07
2022-07-26T23:12:22.874Z,21.00
2022-07-26T23:14:55.642Z,20.97
2022-07-26T23:17:28.000Z,21.10
2022-07-26T23:20:00.523Z,21.08
2022-07-26T23:22:32.698Z,21.01
2022-07-26T23:25:05.326Z,20.99
2022-07-26T23:27:37.835Z,20.98
2022-07-26T23:30:11.701Z,20.95
2022-07-26T23:32:43.914Z,20.89
2022-07-26T23:35:16.121Z,20.85
2022-07-26T23:37:48.371Z,20.86
2022-07-26T23:40:21.631Z,20.82
2022-07-26T23:42:54.593Z,20.81
2022-07-26T23:45:27.018Z,20.66
2022-07-26T23:47:59.389Z,20.81
2022-07-26T23:50:31.866Z,20.78
2022-07-26T23:53:03.959Z,20.70
2022-07-26T23:55:36.845Z,20.67
2022-07-26T23:58:11.939Z,20.68
